createdAt,value
2018-05-10T00:00:17.590Z,11.21
2018-05-10T00:01:17.507Z,11.26
2018-05-10T00:02:17.425Z,11.24
2018-05-10T00:03:17.356Z,11.23
2018-05-10T00:04:17.278Z,11.36
2018-05-10T00:05:17.201Z,11.41
2018-05-10T00:06:17.134Z,11.31
2018-05-10T00:07:17.048Z,11.24
2018-05-10T00:08:16.971Z,11.24
2018-05-10T00:09:16.899Z,11.24
2018-05-10T00:10:16.818Z,11.24
2018-05-10T00:11:16.745Z,11.36
2018-05-10T00:12:16.677Z,11.29
2018-05-10T00:13:16.599Z,11.32
2018-05-10T00:14:16.519Z,11.23
2018-05-10T00:15:16.458Z,11.26
2018-05-10T00:16:16.363Z,11.16
2018-05-10T00:17:16.294Z,11.14
2018-05-10T00:18:16.218Z,11.13
2018-05-10T00:19:16.135Z,11.08
2018-05-10T00:20:16.064Z,11.02
2018-05-10T00:21:15.994Z,10.92
2018-05-10T00:22:15.914Z,10.91
2018-05-10T00:23:15.844Z,10.95
2018-05-10T00:24:15.835Z,10.83
2018-05-10T00:25:15.692Z,10.74
2018-05-10T00:26:15.609Z,10.73
2018-05-10T00:27:15.614Z,10.71
2018-05-10T00:28:15.463Z,10.69
2018-05-10T00:29:15.386Z,10.77
2018-05-10T00:30:15.313Z,10.73
2018-05-10T00:31:15.234Z,10.75
2018-05-10T00:32:15.155Z,10.87
2018-05-10T00:33:15.088Z,10.88
2018-05-10T00:34:15.019Z,10.95
2018-05-10T00:35:14.927Z,10.98
2018-05-10T00:36:14.864Z,10.87
2018-05-10T00:37:14.774Z,10.91
2018-05-10T00:38:14.693Z,10.88
2018-05-10T00:39:14.627Z,10.98
2018-05-10T00:40:14.549Z,11.03
2018-05-10T00:41:14.476Z,10.99
2018-05-10T00:42:14.402Z,11.00
2018-05-10T00:43:14.319Z,11.05
2018-05-10T00:44:14.240Z,11.02
2018-05-10T00:45:14.183Z,10.98
2018-05-10T00:46:14.091Z,11.05
2018-05-10T00:47:14.022Z,10.92
2018-05-10T00:48:13.953Z,10.84
2018-05-10T00:49:13.864Z,10.67
2018-05-10T00:50:13.781Z,10.71
2018-05-10T00:51:13.720Z,10.59
2018-05-10T00:52:13.635Z,10.51
2018-05-10T00:53:13.562Z,10.59
2018-05-10T00:54:13.487Z,10.51
2018-05-10T00:55:13.402Z,10.49
2018-05-10T00:56:13.331Z,10.41
2018-05-10T00:57:13.264Z,10.37
2018-05-10T00:58:13.185Z,10.41
2018-05-10T00:59:13.104Z,10.43
2018-05-10T01:00:13.035Z,10.37
2018-05-10T01:01:12.954Z,10.37
2018-05-10T01:02:12.875Z,10.36
2018-05-10T01:03:12.797Z,10.37
2018-05-10T01:04:12.735Z,10.29
2018-05-10T01:05:12.664Z,10.25
2018-05-10T01:06:12.580Z,10.18
2018-05-10T01:07:12.501Z,10.18
2018-05-10T01:08:12.418Z,10.15
2018-05-10T01:09:12.352Z,10.16
2018-05-10T01:10:12.262Z,10.11
2018-05-10T01:11:12.192Z,10.18
2018-05-10T01:12:12.124Z,10.15
2018-05-10T01:13:12.036Z,10.15
2018-05-10T01:14:11.957Z,10.25
2018-05-10T01:15:11.893Z,10.34
2018-05-10T01:16:11.811Z,10.41
2018-05-10T01:17:11.741Z,10.39
2018-05-10T01:18:11.660Z,10.41
2018-05-10T01:19:11.593Z,10.41
2018-05-10T01:20:11.505Z,10.34
2018-05-10T01:21:11.432Z,10.25
2018-05-10T01:22:11.354Z,10.21
2018-05-10T01:23:11.276Z,10.19
2018-05-10T01:24:11.204Z,10.13
2018-05-10T01:25:11.143Z,10.15
2018-05-10T01:26:11.049Z,10.15
2018-05-10T01:27:10.975Z,10.13
2018-05-10T01:28:10.893Z,10.13
2018-05-10T01:29:10.816Z,10.13
2018-05-10T01:30:10.743Z,10.16
2018-05-10T01:31:10.671Z,10.11
2018-05-10T01:32:10.585Z,10.21
2018-05-10T01:33:10.520Z,10.18
2018-05-10T01:34:10.436Z,10.21
2018-05-10T01:35:10.359Z,10.18
2018-05-10T01:36:10.283Z,10.03
2018-05-10T01:37:10.216Z,10.08
2018-05-10T01:38:10.136Z,10.00
2018-05-10T01:39:10.057Z,9.89
2018-05-10T01:40:09.983Z,9.75
2018-05-10T01:41:09.908Z,9.78
2018-05-10T01:42:09.841Z,9.82
2018-05-10T01:43:09.754Z,9.86
2018-05-10T01:44:09.672Z,9.89
2018-05-10T01:45:09.610Z,9.83
2018-05-10T01:46:09.514Z,9.79
2018-05-10T01:47:09.445Z,9.89
2018-05-10T01:48:09.367Z,9.89
2018-05-10T01:49:09.297Z,9.97
2018-05-10T01:50:09.213Z,9.86
2018-05-10T01:51:09.142Z,10.01
2018-05-10T01:52:09.069Z,10.06
2018-05-10T01:53:08.983Z,10.08
2018-05-10T01:54:08.909Z,10.04
2018-05-10T01:55:08.835Z,10.04
2018-05-10T01:56:08.758Z,10.15
2018-05-10T01:57:08.686Z,10.16
2018-05-10T01:58:08.605Z,10.13
2018-05-10T01:59:08.525Z,10.19
2018-05-10T02:00:08.456Z,10.29
2018-05-10T02:01:08.383Z,10.29
2018-05-10T02:02:08.301Z,10.23
2018-05-10T02:03:08.224Z,10.26
2018-05-10T02:04:08.152Z,10.28
2018-05-10T02:05:08.080Z,10.22
2018-05-10T02:06:07.989Z,10.11
2018-05-10T02:07:07.925Z,10.13
2018-05-10T02:08:08.425Z,10.07
2018-05-10T02:09:07.762Z,9.93
2018-05-10T02:10:07.692Z,9.96
2018-05-10T02:11:07.619Z,9.89
2018-05-10T02:12:07.530Z,9.75
2018-05-10T02:13:07.462Z,9.82
2018-05-10T02:14:07.379Z,9.82
2018-05-10T02:15:07.309Z,9.88
2018-05-10T02:16:07.227Z,9.86
2018-05-10T02:17:07.154Z,9.83
2018-05-10T02:18:07.083Z,9.85
2018-05-10T02:19:07.004Z,9.85
2018-05-10T02:20:06.919Z,9.85
2018-05-10T02:21:06.885Z,9.80
2018-05-10T02:22:06.773Z,9.83
2018-05-10T02:23:06.688Z,9.83
2018-05-10T02:24:06.627Z,9.85
2018-05-10T02:25:06.541Z,9.67
2018-05-10T02:26:06.459Z,9.45
2018-05-10T02:27:06.393Z,9.37
2018-05-10T02:28:06.310Z,9.38
2018-05-10T02:29:06.232Z,9.31
2018-05-10T02:30:06.157Z,9.19
2018-05-10T02:31:06.078Z,9.17
2018-05-10T02:32:06.003Z,9.22
2018-05-10T02:33:05.927Z,9.27
2018-05-10T02:34:05.858Z,9.29
2018-05-10T02:35:05.778Z,9.34
2018-05-10T02:36:05.695Z,9.40
2018-05-10T02:37:05.626Z,9.35
2018-05-10T02:38:05.552Z,9.38
2018-05-10T02:39:05.469Z,9.46
2018-05-10T02:40:05.394Z,9.43
2018-05-10T02:41:05.321Z,9.46
2018-05-10T02:42:05.235Z,9.42
2018-05-10T02:43:05.163Z,9.45
2018-05-10T02:44:05.098Z,9.38
2018-05-10T02:45:05.076Z,9.40
2018-05-10T02:46:04.933Z,9.46
2018-05-10T02:47:04.860Z,9.35
2018-05-10T02:48:04.775Z,9.50
2018-05-10T02:49:04.704Z,9.35
2018-05-10T02:50:04.631Z,9.40
2018-05-10T02:51:04.539Z,9.52
2018-05-10T02:52:04.484Z,9.43
2018-05-10T02:53:04.398Z,9.46
2018-05-10T02:54:04.314Z,9.63
2018-05-10T02:55:04.240Z,9.61
2018-05-10T02:56:04.165Z,9.49
2018-05-10T02:57:04.084Z,9.47
2018-05-10T02:58:04.014Z,9.61
2018-05-10T02:59:03.937Z,9.60
2018-05-10T03:00:03.860Z,9.58
2018-05-10T03:01:04.781Z,9.68
2018-05-10T03:02:03.705Z,9.70
2018-05-10T03:03:03.623Z,9.70
2018-05-10T03:04:03.555Z,9.70
2018-05-10T03:05:03.475Z,9.71
2018-05-10T03:06:03.390Z,9.67
2018-05-10T03:07:03.323Z,9.70
2018-05-10T03:08:03.243Z,9.68
2018-05-10T03:09:03.162Z,9.70
2018-05-10T03:10:03.098Z,9.58
2018-05-10T03:11:03.015Z,9.58
2018-05-10T03:12:02.930Z,9.58
2018-05-10T03:13:02.861Z,9.47
2018-05-10T03:14:02.787Z,9.56
2018-05-10T03:15:02.702Z,9.58
2018-05-10T03:16:02.630Z,9.64
2018-05-10T03:17:02.553Z,9.60
2018-05-10T03:18:02.473Z,9.70
2018-05-10T03:19:02.401Z,9.61
2018-05-10T03:20:02.322Z,9.65
2018-05-10T03:21:02.238Z,9.63
2018-05-10T03:22:02.168Z,9.50
2018-05-10T03:23:02.090Z,9.40
2018-05-10T03:24:02.012Z,9.38
2018-05-10T03:25:02.041Z,9.43
2018-05-10T03:26:01.944Z,9.38
2018-05-10T03:27:01.776Z,9.38
2018-05-10T03:28:01.752Z,9.32
2018-05-10T03:29:01.633Z,9.31
2018-05-10T03:30:01.572Z,9.29
2018-05-10T03:31:01.567Z,9.31
2018-05-10T03:32:01.470Z,9.28
2018-05-10T03:33:01.317Z,9.24
2018-05-10T03:34:01.244Z,9.31
2018-05-10T03:35:01.182Z,9.22
2018-05-10T03:36:01.091Z,9.29
2018-05-10T03:37:01.014Z,9.27
2018-05-10T03:38:00.947Z,9.32
2018-05-10T03:39:00.858Z,9.20
2018-05-10T03:40:00.808Z,9.19
2018-05-10T03:41:00.812Z,9.17
2018-05-10T03:42:00.626Z,9.17
2018-05-10T03:43:00.625Z,9.16
2018-05-10T03:44:00.533Z,9.17
2018-05-10T03:45:00.397Z,9.03
2018-05-10T03:46:00.332Z,9.03
2018-05-10T03:47:00.376Z,9.03
2018-05-10T03:48:00.163Z,8.95
2018-05-10T03:49:00.153Z,8.91
2018-05-10T03:50:00.052Z,8.95
2018-05-10T03:50:59.931Z,8.95
2018-05-10T03:51:59.966Z,8.94
2018-05-10T03:52:59.867Z,8.91
2018-05-10T03:53:59.700Z,8.95
2018-05-10T03:54:59.680Z,8.82
2018-05-10T03:55:59.579Z,8.87
2018-05-10T03:56:59.465Z,8.87
2018-05-10T03:57:59.496Z,8.88
2018-05-10T03:58:59.396Z,8.85
2018-05-10T03:59:59.236Z,8.76
2018-05-10T04:00:59.209Z,8.82
2018-05-10T04:01:59.109Z,8.61
2018-05-10T04:02:59.011Z,8.68
2018-05-10T04:03:59.021Z,8.68
2018-05-10T04:04:58.848Z,8.65
2018-05-10T04:05:58.869Z,8.75
2018-05-10T04:06:58.699Z,8.76
2018-05-10T04:07:58.623Z,8.79
2018-05-10T04:08:58.557Z,8.79
2018-05-10T04:09:58.558Z,8.70
2018-05-10T04:10:58.395Z,8.73
2018-05-10T04:11:58.362Z,8.70
2018-05-10T04:12:58.238Z,8.69
2018-05-10T04:13:58.176Z,8.77
2018-05-10T04:14:58.076Z,8.79
2018-05-10T04:15:58.084Z,8.79
2018-05-10T04:16:57.930Z,8.76
2018-05-10T04:17:58.920Z,8.90
2018-05-10T04:18:57.772Z,8.90
2018-05-10T04:19:57.698Z,8.87
2018-05-10T04:20:57.618Z,8.91
2018-05-10T04:21:57.608Z,8.88
2018-05-10T04:22:57.464Z,8.97
2018-05-10T04:23:57.395Z,9.02
2018-05-10T04:24:57.309Z,9.12
2018-05-10T04:25:57.234Z,9.03
2018-05-10T04:26:57.148Z,9.14
2018-05-10T04:27:57.113Z,9.13
2018-05-10T04:28:56.999Z,9.22
2018-05-10T04:29:56.930Z,9.27
2018-05-10T04:30:56.845Z,9.10
2018-05-10T04:31:56.771Z,9.29
2018-05-10T04:32:56.699Z,9.29
2018-05-10T04:33:56.658Z,9.40
2018-05-10T04:34:56.534Z,9.43
2018-05-10T04:35:56.572Z,9.38
2018-05-10T04:36:56.384Z,9.31
2018-05-10T04:37:56.305Z,9.35
2018-05-10T04:38:56.233Z,9.37
2018-05-10T04:39:56.194Z,9.38
2018-05-10T04:40:56.073Z,9.34
2018-05-10T04:41:55.997Z,9.38
2018-05-10T04:42:55.923Z,9.46
2018-05-10T04:43:55.841Z,9.50
2018-05-10T04:44:55.765Z,9.42
2018-05-10T04:45:55.713Z,9.49
2018-05-10T04:46:55.609Z,9.58
2018-05-10T04:47:55.627Z,9.47
2018-05-10T04:48:55.458Z,9.63
2018-05-10T04:49:55.451Z,9.67
2018-05-10T04:50:55.301Z,9.71
2018-05-10T04:51:55.242Z,9.70
2018-05-10T04:52:55.151Z,9.82
2018-05-10T04:53:55.153Z,9.92
2018-05-10T04:54:55.005Z,9.79
2018-05-10T04:55:54.965Z,9.93
2018-05-10T04:56:54.839Z,9.86
2018-05-10T04:57:54.872Z,9.90
2018-05-10T04:58:54.687Z,10.01
2018-05-10T04:59:54.681Z,10.06
2018-05-10T05:00:54.533Z,10.06
2018-05-10T05:01:54.490Z,10.08
2018-05-10T05:02:54.377Z,10.13
2018-05-10T05:03:54.405Z,10.21
2018-05-10T05:04:54.225Z,10.25
2018-05-10T05:05:54.220Z,10.23
2018-05-10T05:06:54.068Z,10.39
2018-05-10T05:07:54.018Z,10.36
2018-05-10T05:08:53.928Z,10.36
2018-05-10T05:09:53.925Z,10.39
2018-05-10T05:10:53.764Z,10.46
2018-05-10T05:11:53.744Z,10.47
2018-05-10T05:12:53.611Z,10.53
2018-05-10T05:13:53.648Z,10.55
2018-05-10T05:14:53.459Z,10.53
2018-05-10T05:15:53.456Z,10.59
2018-05-10T05:16:53.302Z,10.62
2018-05-10T05:17:53.264Z,10.73
2018-05-10T05:18:53.145Z,10.65
2018-05-10T05:19:53.176Z,10.69
2018-05-10T05:20:52.995Z,10.75
2018-05-10T05:21:52.982Z,10.74
2018-05-10T05:22:52.844Z,10.75
2018-05-10T05:23:52.772Z,10.87
2018-05-10T05:24:52.690Z,10.87
2018-05-10T05:25:52.617Z,10.84
2018-05-10T05:26:52.569Z,10.88
2018-05-10T05:27:52.511Z,10.87
2018-05-10T05:28:52.379Z,10.92
2018-05-10T05:29:52.307Z,10.93
2018-05-10T05:30:52.226Z,10.85
2018-05-10T05:31:52.231Z,10.85
2018-05-10T05:32:52.079Z,10.84
2018-05-10T05:33:52.050Z,10.87
2018-05-10T05:34:51.916Z,10.93
2018-05-10T05:35:51.953Z,10.92
2018-05-10T05:36:51.766Z,10.93
2018-05-10T05:37:51.761Z,10.88
2018-05-10T05:38:51.619Z,10.88
2018-05-10T05:39:51.569Z,10.92
2018-05-10T05:40:51.459Z,10.96
2018-05-10T05:41:51.477Z,11.03
2018-05-10T05:42:51.307Z,11.05
2018-05-10T05:43:51.284Z,10.96
2018-05-10T05:44:51.154Z,11.05
2018-05-10T05:45:51.085Z,11.08
2018-05-10T05:46:51.001Z,11.05
2018-05-10T05:47:51.010Z,11.10
2018-05-10T05:48:50.851Z,11.11
2018-05-10T05:49:50.812Z,11.18
2018-05-10T05:50:50.693Z,11.11
2018-05-10T05:51:50.725Z,11.17
2018-05-10T05:52:50.544Z,11.24
2018-05-10T05:53:50.465Z,11.36
2018-05-10T05:54:50.437Z,11.32
2018-05-10T05:55:50.314Z,11.35
2018-05-10T05:56:50.236Z,11.34
2018-05-10T05:57:50.254Z,11.43
2018-05-10T05:58:50.085Z,11.53
2018-05-10T05:59:50.009Z,11.59
2018-05-10T06:00:49.994Z,11.65
2018-05-10T06:01:49.973Z,11.76
2018-05-10T06:02:49.780Z,11.76
2018-05-10T06:03:49.782Z,11.89
2018-05-10T06:04:49.625Z,11.97
2018-05-10T06:05:49.550Z,11.98
2018-05-10T06:06:49.498Z,12.03
2018-05-10T06:07:49.398Z,12.23
2018-05-10T06:08:49.322Z,12.30
2018-05-10T06:09:49.310Z,12.30
2018-05-10T06:10:49.170Z,12.49
2018-05-10T06:11:49.093Z,12.46
2018-05-10T06:12:49.125Z,12.60
2018-05-10T06:13:48.940Z,12.64
2018-05-10T06:14:48.864Z,12.69
2018-05-10T06:15:48.940Z,12.85
2018-05-10T06:16:48.719Z,12.85
2018-05-10T06:17:48.638Z,12.99
2018-05-10T06:18:48.649Z,13.02
2018-05-10T06:19:48.485Z,13.18
2018-05-10T06:20:48.408Z,13.15
2018-05-10T06:21:48.367Z,13.32
2018-05-10T06:22:48.256Z,13.32
2018-05-10T06:23:48.183Z,13.37
2018-05-10T06:24:48.229Z,13.45
2018-05-10T06:25:48.027Z,13.52
2018-05-10T06:26:47.952Z,13.66
2018-05-10T06:27:47.896Z,13.71
2018-05-10T06:28:47.801Z,13.71
2018-05-10T06:29:47.725Z,13.83
2018-05-10T06:30:47.710Z,13.96
2018-05-10T06:31:47.573Z,14.14
2018-05-10T06:32:47.499Z,14.38
2018-05-10T06:33:47.525Z,14.36
2018-05-10T06:34:47.346Z,14.54
2018-05-10T06:35:47.272Z,14.65
2018-05-10T06:36:47.204Z,14.69
2018-05-10T06:37:47.118Z,14.83
2018-05-10T06:38:47.047Z,14.74
2018-05-10T06:39:46.978Z,14.83
2018-05-10T06:40:46.944Z,14.84
2018-05-10T06:41:46.818Z,14.85
2018-05-10T06:42:46.763Z,14.94
2018-05-10T06:43:46.666Z,15.01
2018-05-10T06:44:46.589Z,15.03
2018-05-10T06:45:46.579Z,15.09
2018-05-10T06:46:46.521Z,15.15
2018-05-10T06:47:46.374Z,15.21
2018-05-10T06:48:46.395Z,15.24
2018-05-10T06:49:46.218Z,15.33
2018-05-10T06:50:46.141Z,15.28
2018-05-10T06:51:46.108Z,15.42
2018-05-10T06:52:45.987Z,15.49
2018-05-10T06:53:45.921Z,15.51
2018-05-10T06:54:45.927Z,15.59
2018-05-10T06:55:45.764Z,15.61
2018-05-10T06:56:45.689Z,15.73
2018-05-10T06:57:45.636Z,15.73
2018-05-10T06:58:45.544Z,15.76
2018-05-10T06:59:45.468Z,15.83
2018-05-10T07:00:45.396Z,15.96
2018-05-10T07:01:45.362Z,16.03
2018-05-10T07:02:45.243Z,16.04
2018-05-10T07:03:45.268Z,16.18
2018-05-10T07:04:45.093Z,16.18
2018-05-10T07:05:45.017Z,16.22
2018-05-10T07:06:44.951Z,16.33
2018-05-10T07:07:44.870Z,16.35
2018-05-10T07:08:44.797Z,16.47
2018-05-10T07:09:44.875Z,16.57
2018-05-10T07:10:44.647Z,16.65
2018-05-10T07:11:44.571Z,16.73
2018-05-10T07:12:44.500Z,16.85
2018-05-10T07:13:44.516Z,16.96
2018-05-10T07:14:44.346Z,16.96
2018-05-10T07:15:44.324Z,17.07
2018-05-10T07:16:44.200Z,17.20
2018-05-10T07:17:44.130Z,17.25
2018-05-10T07:18:44.054Z,17.28
2018-05-10T07:19:43.987Z,17.53
2018-05-10T07:20:43.905Z,17.54
2018-05-10T07:21:43.840Z,17.67
2018-05-10T07:22:43.760Z,17.77
2018-05-10T07:23:43.685Z,17.79
2018-05-10T07:24:43.627Z,17.94
2018-05-10T07:25:43.537Z,17.89
2018-05-10T07:26:43.469Z,18.09
2018-05-10T07:27:43.404Z,18.13
2018-05-10T07:28:43.315Z,18.22
2018-05-10T07:29:43.243Z,18.27
2018-05-10T07:30:43.178Z,18.42
2018-05-10T07:31:43.107Z,18.53
2018-05-10T07:32:43.028Z,18.58
2018-05-10T07:33:42.965Z,18.62
2018-05-10T07:34:42.874Z,18.82
2018-05-10T07:35:42.813Z,18.79
2018-05-10T07:36:42.739Z,18.98
2018-05-10T07:37:42.661Z,19.05
2018-05-10T07:38:42.589Z,19.13
2018-05-10T07:39:42.522Z,19.17
2018-05-10T07:40:42.438Z,19.17
2018-05-10T07:41:42.372Z,19.27
2018-05-10T07:42:42.308Z,19.35
2018-05-10T07:43:42.221Z,19.55
2018-05-10T07:44:42.154Z,19.64
2018-05-10T07:45:42.087Z,19.76
2018-05-10T07:46:42.021Z,19.82
2018-05-10T07:47:41.952Z,19.94
2018-05-10T07:48:41.865Z,19.93
2018-05-10T07:49:41.811Z,20.05
2018-05-10T07:50:41.721Z,20.06
2018-05-10T07:51:41.695Z,20.08
2018-05-10T07:52:41.574Z,20.26
2018-05-10T07:53:41.502Z,20.30
2018-05-10T07:54:41.510Z,20.27
2018-05-10T07:55:41.363Z,20.28
2018-05-10T07:56:41.288Z,20.31
2018-05-10T07:57:41.248Z,20.40
2018-05-10T07:58:41.234Z,20.35
2018-05-10T07:59:41.075Z,20.49
2018-05-10T08:00:41.044Z,20.57
2018-05-10T08:01:40.932Z,20.66
2018-05-10T08:02:40.860Z,20.83
2018-05-10T08:03:40.789Z,20.91
2018-05-10T08:04:40.758Z,21.04
2018-05-10T08:05:40.651Z,21.04
2018-05-10T08:06:40.674Z,21.04
2018-05-10T08:07:40.511Z,20.99
2018-05-10T08:08:40.435Z,21.09
2018-05-10T08:09:40.381Z,21.06
2018-05-10T08:10:40.299Z,21.06
2018-05-10T08:11:40.228Z,21.08
2018-05-10T08:12:40.202Z,21.09
2018-05-10T08:13:40.087Z,21.38
2018-05-10T08:14:40.017Z,21.30
2018-05-10T08:15:40.013Z,21.29
2018-05-10T08:16:39.874Z,21.29
2018-05-10T08:17:39.805Z,21.29
2018-05-10T08:18:39.733Z,21.38
2018-05-10T08:19:39.735Z,21.57
2018-05-10T08:20:39.591Z,21.57
2018-05-10T08:21:39.540Z,21.70
2018-05-10T08:22:39.459Z,21.70
2018-05-10T08:23:39.384Z,21.74
2018-05-10T08:24:39.312Z,21.81
2018-05-10T08:25:39.263Z,21.94
2018-05-10T08:26:39.174Z,21.95
2018-05-10T08:27:40.036Z,21.95
2018-05-10T08:28:39.033Z,22.12
2018-05-10T08:29:38.965Z,22.17
2018-05-10T08:30:38.987Z,22.05
2018-05-10T08:31:38.832Z,22.23
2018-05-10T08:32:38.762Z,22.20
2018-05-10T08:33:38.801Z,22.23
2018-05-10T08:34:38.617Z,22.28
2018-05-10T08:35:38.546Z,22.37
2018-05-10T08:36:38.535Z,22.39
2018-05-10T08:37:38.411Z,22.34
2018-05-10T08:38:38.340Z,22.30
2018-05-10T08:39:38.331Z,22.30
2018-05-10T08:40:38.207Z,22.38
2018-05-10T08:41:38.135Z,22.44
2018-05-10T08:42:38.066Z,22.52
2018-05-10T08:43:38.050Z,22.65
2018-05-10T08:44:37.933Z,22.81
2018-05-10T08:45:37.961Z,22.79
2018-05-10T08:46:37.790Z,22.57
2018-05-10T08:47:37.726Z,22.54
2018-05-10T08:48:37.654Z,22.54
2018-05-10T08:49:37.685Z,22.68
2018-05-10T08:50:37.515Z,22.63
2018-05-10T08:51:37.489Z,22.75
2018-05-10T08:52:37.385Z,22.60
2018-05-10T08:53:37.311Z,22.81
2018-05-10T08:54:37.243Z,23.00
2018-05-10T08:55:37.207Z,23.14
2018-05-10T08:56:37.213Z,23.33
2018-05-10T08:57:37.035Z,23.34
2018-05-10T08:58:37.026Z,23.27
2018-05-10T08:59:36.903Z,23.23
2018-05-10T09:00:36.936Z,23.17
2018-05-10T09:01:36.765Z,22.94
2018-05-10T09:02:36.714Z,22.87
2018-05-10T09:03:36.631Z,22.72
2018-05-10T09:04:36.653Z,22.67
2018-05-10T09:05:37.585Z,22.57
2018-05-10T09:06:36.422Z,22.62
2018-05-10T09:07:36.472Z,22.68
2018-05-10T09:08:47.132Z,22.81
2018-05-10T09:09:36.221Z,22.83
2018-05-10T09:10:36.184Z,23.07
2018-05-10T09:11:36.190Z,23.17
2018-05-10T09:12:36.020Z,23.42
2018-05-10T09:13:36.005Z,23.56
2018-05-10T09:14:36.005Z,23.70
2018-05-10T09:15:35.820Z,23.89
2018-05-10T09:16:35.813Z,23.90
2018-05-10T09:17:35.717Z,23.97
2018-05-10T09:18:35.614Z,24.07
2018-05-10T09:19:35.628Z,24.19
2018-05-10T09:20:35.533Z,24.25
2018-05-10T09:21:35.409Z,24.44
2018-05-10T09:22:35.446Z,24.44
2018-05-10T09:23:35.347Z,24.48
2018-05-10T09:24:35.209Z,24.38
2018-05-10T09:25:35.261Z,24.47
2018-05-10T09:26:35.161Z,24.34
2018-05-10T09:27:35.009Z,24.22
2018-05-10T09:28:34.973Z,24.11
2018-05-10T09:29:34.993Z,24.25
2018-05-10T09:30:34.809Z,24.22
2018-05-10T09:31:34.873Z,24.12
2018-05-10T09:32:34.695Z,24.07
2018-05-10T09:33:34.607Z,24.11
2018-05-10T09:34:34.604Z,24.20
2018-05-10T09:35:34.510Z,24.38
2018-05-10T09:36:34.407Z,24.45
2018-05-10T09:37:34.337Z,24.50
2018-05-10T09:38:34.273Z,24.67
2018-05-10T09:39:34.361Z,24.80
2018-05-10T09:40:34.232Z,24.56
2018-05-10T09:41:34.135Z,24.50
2018-05-10T09:42:34.009Z,24.26
2018-05-10T09:43:34.048Z,24.26
2018-05-10T09:44:33.951Z,24.17
2018-05-10T09:45:33.809Z,24.27
2018-05-10T09:46:33.759Z,24.30
2018-05-10T09:47:33.766Z,24.35
2018-05-10T09:48:33.609Z,24.50
2018-05-10T09:49:33.577Z,24.63
2018-05-10T09:50:33.583Z,24.83
2018-05-10T09:51:33.407Z,24.91
2018-05-10T09:52:33.395Z,25.00
2018-05-10T09:53:33.295Z,25.09
2018-05-10T09:54:33.217Z,25.20
2018-05-10T09:55:33.203Z,25.41
2018-05-10T09:56:33.116Z,25.50
2018-05-10T09:57:33.013Z,25.70
2018-05-10T09:58:33.020Z,25.79
2018-05-10T09:59:32.926Z,25.89
2018-05-10T10:00:32.812Z,25.97
2018-05-10T10:01:32.838Z,26.12
2018-05-10T10:02:32.740Z,25.93
2018-05-10T10:03:32.615Z,25.57
2018-05-10T10:04:32.652Z,25.57
2018-05-10T10:05:32.557Z,25.41
2018-05-10T10:06:32.420Z,25.47
2018-05-10T10:07:32.468Z,25.40
2018-05-10T10:08:32.428Z,25.20
2018-05-10T10:09:32.223Z,25.12
2018-05-10T10:10:32.186Z,25.05
2018-05-10T10:11:32.196Z,25.17
2018-05-10T10:12:32.027Z,25.32
2018-05-10T10:13:32.001Z,25.42
2018-05-10T10:14:32.007Z,25.56
2018-05-10T10:15:31.832Z,25.70
2018-05-10T10:16:31.815Z,25.71
2018-05-10T10:17:31.760Z,25.97
2018-05-10T10:18:31.631Z,26.04
2018-05-10T10:19:31.627Z,26.09
2018-05-10T10:20:31.539Z,26.05
2018-05-10T10:21:31.440Z,25.86
2018-05-10T10:22:31.439Z,25.89
2018-05-10T10:23:31.346Z,25.82
2018-05-10T10:24:31.246Z,25.77
2018-05-10T10:25:31.256Z,25.70
2018-05-10T10:26:31.159Z,25.68
2018-05-10T10:27:31.045Z,25.68
2018-05-10T10:28:31.073Z,25.57
2018-05-10T10:29:30.976Z,25.60
2018-05-10T10:30:30.879Z,25.72
2018-05-10T10:31:30.884Z,25.83
2018-05-10T10:32:30.856Z,26.09
2018-05-10T10:33:30.656Z,26.11
2018-05-10T10:34:30.732Z,26.05
2018-05-10T10:35:30.605Z,26.02
2018-05-10T10:36:30.460Z,25.89
2018-05-10T10:37:30.430Z,25.90
2018-05-10T10:38:30.418Z,25.83
2018-05-10T10:39:30.265Z,25.72
2018-05-10T10:40:30.227Z,25.67
2018-05-10T10:41:30.243Z,25.59
2018-05-10T10:42:30.072Z,25.42
2018-05-10T10:43:30.044Z,25.28
2018-05-10T10:44:30.057Z,25.22
2018-05-10T10:45:29.909Z,25.19
2018-05-10T10:46:29.865Z,25.12
2018-05-10T10:47:29.762Z,25.05
2018-05-10T10:48:29.674Z,24.86
2018-05-10T10:49:29.681Z,24.85
2018-05-10T10:50:29.583Z,24.75
2018-05-10T10:51:29.476Z,24.80
2018-05-10T10:52:29.493Z,24.69
2018-05-10T10:53:29.348Z,24.64
2018-05-10T10:54:29.303Z,24.54
2018-05-10T10:55:29.215Z,24.42
2018-05-10T10:56:29.152Z,24.35
2018-05-10T10:57:29.079Z,24.34
2018-05-10T10:58:29.121Z,24.27
2018-05-10T10:59:28.946Z,24.25
2018-05-10T11:00:28.936Z,24.16
2018-05-10T11:01:28.828Z,24.08
2018-05-10T11:02:28.753Z,24.10
2018-05-10T11:03:28.682Z,24.20
2018-05-10T11:04:28.651Z,24.30
2018-05-10T11:05:28.555Z,24.54
2018-05-10T11:06:28.559Z,24.62
2018-05-10T11:07:28.433Z,24.79
2018-05-10T11:08:28.353Z,24.93
2018-05-10T11:09:28.290Z,24.98
2018-05-10T11:10:28.282Z,25.05
2018-05-10T11:11:28.159Z,25.13
2018-05-10T11:12:28.190Z,25.10
2018-05-10T11:13:28.027Z,25.08
2018-05-10T11:14:27.961Z,25.10
2018-05-10T11:15:27.894Z,25.09
2018-05-10T11:16:27.911Z,25.02
2018-05-10T11:17:27.765Z,24.91
2018-05-10T11:18:27.723Z,24.71
2018-05-10T11:19:27.629Z,24.47
2018-05-10T11:20:27.561Z,24.22
2018-05-10T11:21:27.511Z,23.93
2018-05-10T11:22:27.548Z,23.86
2018-05-10T11:23:27.364Z,23.75
2018-05-10T11:24:27.347Z,23.60
2018-05-10T11:25:27.233Z,23.42
2018-05-10T11:26:27.169Z,23.27
2018-05-10T11:27:27.207Z,22.86
2018-05-10T11:28:27.071Z,22.67
2018-05-10T11:29:26.970Z,22.41
2018-05-10T11:30:26.987Z,22.16
2018-05-10T11:31:26.836Z,21.86
2018-05-10T11:32:26.764Z,21.61
2018-05-10T11:33:26.701Z,21.33
2018-05-10T11:34:26.700Z,21.39
2018-05-10T11:35:26.574Z,21.45
2018-05-10T11:36:26.613Z,21.46
2018-05-10T11:37:26.443Z,21.56
2018-05-10T11:38:26.368Z,21.57
2018-05-10T11:39:26.301Z,21.56
2018-05-10T11:40:26.331Z,21.38
2018-05-10T11:41:26.169Z,21.20
2018-05-10T11:42:26.141Z,21.01
2018-05-10T11:43:26.032Z,21.02
2018-05-10T11:44:25.985Z,20.87
2018-05-10T11:45:25.899Z,20.61
2018-05-10T11:46:25.860Z,20.42
2018-05-10T11:47:25.780Z,20.26
2018-05-10T11:48:25.771Z,20.20
2018-05-10T11:49:25.634Z,20.23
2018-05-10T11:50:25.616Z,20.13
2018-05-10T11:51:25.486Z,20.08
2018-05-10T11:52:25.488Z,20.05
2018-05-10T11:53:25.348Z,20.09
2018-05-10T11:54:25.303Z,20.00
2018-05-10T11:55:25.213Z,19.80
2018-05-10T11:56:25.206Z,19.61
2018-05-10T11:57:25.121Z,19.51
2018-05-10T11:58:25.120Z,19.46
2018-05-10T11:59:24.935Z,19.32
2018-05-10T12:00:24.928Z,19.25
2018-05-10T12:01:24.802Z,19.15
2018-05-10T12:02:24.842Z,18.95
2018-05-10T12:03:24.659Z,18.89
2018-05-10T12:04:24.651Z,18.94
2018-05-10T12:05:24.517Z,18.80
2018-05-10T12:06:24.559Z,18.55
2018-05-10T12:07:24.388Z,18.28
2018-05-10T12:08:24.366Z,18.24
2018-05-10T12:09:24.242Z,18.21
2018-05-10T12:10:24.277Z,18.21
2018-05-10T12:11:24.106Z,18.18
2018-05-10T12:12:24.099Z,18.11
2018-05-10T12:13:24.019Z,18.07
2018-05-10T12:14:24.004Z,18.07
2018-05-10T12:15:23.823Z,18.00
2018-05-10T12:16:23.762Z,17.95
2018-05-10T12:17:23.681Z,17.98
2018-05-10T12:18:23.719Z,17.95
2018-05-10T12:19:23.538Z,17.73
2018-05-10T12:20:23.548Z,17.71
2018-05-10T12:21:23.396Z,17.64
2018-05-10T12:22:23.440Z,17.48
2018-05-10T12:23:23.254Z,17.43
2018-05-10T12:24:23.247Z,17.29
2018-05-10T12:25:23.113Z,17.25
2018-05-10T12:26:23.162Z,17.21
2018-05-10T12:27:22.973Z,17.05
2018-05-10T12:28:22.968Z,16.95
2018-05-10T12:29:22.826Z,16.82
2018-05-10T12:30:22.777Z,16.88
2018-05-10T12:31:22.687Z,16.65
2018-05-10T12:32:22.684Z,16.55
2018-05-10T12:33:22.540Z,16.53
2018-05-10T12:34:22.489Z,16.47
2018-05-10T12:35:22.405Z,16.41
2018-05-10T12:36:22.408Z,16.53
2018-05-10T12:37:22.258Z,16.60
2018-05-10T12:38:22.214Z,16.56
2018-05-10T12:39:22.114Z,16.56
2018-05-10T12:40:22.131Z,16.52
2018-05-10T12:41:21.977Z,16.50
2018-05-10T12:42:21.933Z,16.29
2018-05-10T12:43:21.825Z,16.42
2018-05-10T12:44:21.844Z,16.44
2018-05-10T12:45:21.693Z,16.44
2018-05-10T12:46:21.653Z,16.41
2018-05-10T12:47:21.541Z,16.23
2018-05-10T12:48:21.470Z,16.34
2018-05-10T12:49:21.468Z,16.34
2018-05-10T12:50:21.320Z,16.18
2018-05-10T12:51:21.250Z,16.30
2018-05-10T12:52:21.285Z,16.30
2018-05-10T12:53:21.106Z,16.34
2018-05-10T12:54:21.033Z,16.25
2018-05-10T12:55:20.997Z,16.25
2018-05-10T12:56:20.927Z,16.14
2018-05-10T12:57:20.815Z,16.08